Time;durP1;ratioP1;P1;durP2;ratioP2;P2;SDS_P1;SDS_P2;PMS_P1;PMS_P2;Temp;Humidity;BMP_temperature;BMP_pressure;BME280_temperature;BME280_humidity;BME280_pressure;Samples;Min_cycle;Max_cycle;Signal;HPM_P1;HPM_P2
2022/03/12 00:01:15;;;;;;;;;;;;;;;4.30;45.61;101812.63;5055716;28;1180;-77
2022/03/12 00:03:42;;;;;;;;;;;;;;;4.33;45.58;101817.00;5055678;28;802;-77
2022/03/12 00:06:09;;;;;;;;;;;;;;;4.24;45.69;101810.25;5055661;28;943;-77
2022/03/12 00:08:54;;;;;;;;;;;;;;;4.29;45.81;101820.66;5054968;28;947;-77
2022/03/12 00:11:22;;;;;;;;;;;;;;;4.26;45.68;101818.16;5055425;28;1894;-77
2022/03/12 00:13:50;;;;;;;;;;;;;;;4.22;45.73;101814.72;5054902;28;818;-78
2022/03/12 00:16:22;;;;;;;;;;;;;;;4.18;45.79;101810.47;5055324;28;791;-77
2022/03/12 00:18:54;;;;;;;;;;;;;;;4.17;46.41;101823.81;5055073;28;578;-77
2022/03/12 00:21:23;;;;;;;;;;;;;;;4.13;45.82;101819.50;5055585;28;1237;-77
2022/03/12 00:23:53;;;;;;;;;;;;;;;4.12;46.19;101818.66;5055355;28;786;-77
2022/03/12 00:26:21;;;;;;;;;;;;;;;4.08;45.89;101817.06;5055539;28;866;-77
2022/03/12 00:28:47;;;;;;;;;;;;;;;4.03;45.94;101819.91;5054534;28;791;-77
2022/03/12 00:31:13;;;;;;;;;;;;;;;3.99;46.45;101820.91;5055072;28;1898;-77
2022/03/12 00:33:39;;;;;;;;;;;;;;;3.99;46.01;101815.59;5055264;28;947;-77
2022/03/12 00:36:06;;;;;;;;;;;;;;;3.92;46.44;101816.75;5054943;28;819;-77
2022/03/12 00:38:32;;;;;;;;;;;;;;;3.93;46.36;101817.63;5054434;28;798;-77
2022/03/12 00:41:00;;;;;;;;;;;;;;;3.88;46.31;101812.50;5054957;28;1169;-77
2022/03/12 00:43:26;;;;;;;;;;;;;;;3.86;46.69;101821.44;5055471;28;795;-77
2022/03/12 00:45:52;;;;;;;;;;;;;;;3.83;46.34;101818.88;5054937;28;914;-78
2022/03/12 00:48:18;;;;;;;;;;;;;;;3.81;46.12;101810.97;5054622;28;834;-77
2022/03/12 00:50:44;;;;;;;;;;;;;;;3.83;46.30;101813.56;5054566;28;1898;-77
2022/03/12 00:53:10;;;;;;;;;;;;;;;3.81;46.49;101818.06;5054907;28;758;-77
2022/03/12 00:55:37;;;;;;;;;;;;;;;3.79;46.19;101818.13;5070036;28;844;-77
2022/03/12 00:58:03;;;;;;;;;;;;;;;3.75;46.42;101816.53;5054678;28;811;-77
2022/03/12 01:00:29;;;;;;;;;;;;;;;3.71;46.25;101818.41;5054162;28;1169;-77
2022/03/12 01:02:55;;;;;;;;;;;;;;;3.71;46.73;101823.72;5054552;28;830;-77
2022/03/12 01:05:39;;;;;;;;;;;;;;;3.63;46.75;101820.47;5054704;28;720;-77
2022/03/12 01:08:06;;;;;;;;;;;;;;;3.63;46.73;101811.66;5055003;28;559;-77
2022/03/12 01:10:32;;;;;;;;;;;;;;;3.63;46.67;101815.16;5053740;28;1906;-77
2022/03/12 01:12:58;;;;;;;;;;;;;;;3.61;46.34;101816.16;5054506;28;840;-77
2022/03/12 01:15:24;;;;;;;;;;;;;;;3.56;46.31;101820.78;5054778;28;822;-77
2022/03/12 01:17:51;;;;;;;;;;;;;;;3.62;46.54;101821.41;5058122;28;787;-77
2022/03/12 01:20:21;;;;;;;;;;;;;;;3.61;46.13;101814.34;5055717;28;1264;-77
2022/03/12 01:22:47;;;;;;;;;;;;;;;3.61;46.30;101805.53;5054504;28;807;-77
2022/03/12 01:25:13;;;;;;;;;;;;;;;3.58;46.39;101814.47;5054149;28;833;-77
2022/03/12 01:27:39;;;;;;;;;;;;;;;3.54;46.37;101814.63;5054278;28;766;-77
2022/03/12 01:30:07;;;;;;;;;;;;;;;3.51;46.55;101820.91;5053602;28;1217;-77
2022/03/12 01:32:34;;;;;;;;;;;;;;;3.47;46.48;101819.31;5069480;28;1957;-77
2022/03/12 01:35:00;;;;;;;;;;;;;;;3.44;46.21;101820.28;5054477;28;974;-77
2022/03/12 01:37:26;;;;;;;;;;;;;;;3.50;46.42;101815.66;5052180;28;842;-77
2022/03/12 01:39:52;;;;;;;;;;;;;;;3.47;46.51;101816.66;5053545;28;1315;-77
2022/03/12 01:42:21;;;;;;;;;;;;;;;3.47;46.79;101815.78;5054414;28;981;-77
2022/03/12 01:44:49;;;;;;;;;;;;;;;3.42;46.78;101815.94;5054372;28;794;-77
2022/03/12 01:47:19;;;;;;;;;;;;;;;3.35;46.48;101809.13;5054172;28;926;-77
2022/03/12 01:49:47;;;;;;;;;;;;;;;3.39;46.02;101818.69;5053409;28;1216;-77
2022/03/12 01:52:14;;;;;;;;;;;;;;;3.40;46.55;101813.34;5054230;28;1902;-77
2022/03/12 01:54:43;;;;;;;;;;;;;;;3.35;46.14;101812.66;5054224;28;803;-77
2022/03/12 01:57:09;;;;;;;;;;;;;;;3.40;46.35;101809.81;5054044;28;1087;-77
2022/03/12 01:59:36;;;;;;;;;;;;;;;3.42;46.11;101808.84;5053241;28;1284;-77
2022/03/12 02:02:06;;;;;;;;;;;;;;;3.39;46.45;101801.00;5054110;28;966;-77
2022/03/12 02:04:31;;;;;;;;;;;;;;;3.34;46.76;101796.75;5054386;28;808;-77
2022/03/12 02:07:00;;;;;;;;;;;;;;;3.33;46.87;101803.00;5053916;28;1011;-77
2022/03/12 02:09:26;;;;;;;;;;;;;;;3.28;46.89;101804.97;5053297;28;1177;-77
2022/03/12 02:11:52;;;;;;;;;;;;;;;3.26;47.14;101802.38;5053675;28;1903;-77
2022/03/12 02:14:24;;;;;;;;;;;;;;;3.22;46.96;101794.56;5053851;28;702;-77
2022/03/12 02:17:01;;;;;;;;;;;;;;;3.18;46.76;101793.81;5069190;28;879;-77
2022/03/12 02:19:29;;;;;;;;;;;;;;;3.17;47.07;101792.06;5053546;28;1263;-77
2022/03/12 02:22:04;;;;;;;;;;;;;;;3.17;46.95;101797.38;5053671;28;799;-77
2022/03/12 02:24:32;;;;;;;;;;;;;;;3.13;47.26;101788.63;5053941;28;593;-77
2022/03/12 02:27:00;;;;;;;;;;;;;;;3.11;47.08;101784.31;5053717;28;883;-77
2022/03/12 02:29:27;;;;;;;;;;;;;;;3.12;47.29;101789.56;5053153;28;1272;-77
2022/03/12 02:31:56;;;;;;;;;;;;;;;3.10;47.19;101790.53;5053669;28;1909;-77
2022/03/12 02:34:29;;;;;;;;;;;;;;;3.14;46.70;101795.66;5053708;28;825;-77
2022/03/12 02:36:56;;;;;;;;;;;;;;;3.15;46.92;101791.28;5053657;28;629;-77
2022/03/12 02:39:22;;;;;;;;;;;;;;;3.10;46.73;101786.09;5056583;28;1166;-77
2022/03/12 02:41:49;;;;;;;;;;;;;;;3.07;47.23;101786.22;5057196;28;820;-77
2022/03/12 02:44:18;;;;;;;;;;;;;;;3.06;47.35;101787.16;5057129;28;719;-77
2022/03/12 02:47:08;;;;;;;;;;;;;;;3.06;46.86;101783.63;5057280;28;791;-77
2022/03/12 02:49:39;;;;;;;;;;;;;;;3.05;48.09;101793.38;5056476;28;1248;-77
2022/03/12 02:52:06;;;;;;;;;;;;;;;3.02;47.17;101788.16;5057045;28;1969;-77
2022/03/12 02:54:33;;;;;;;;;;;;;;;3.04;47.20;101794.25;5057046;28;758;-77
2022/03/12 02:57:01;;;;;;;;;;;;;;;3.08;47.00;101787.09;5056997;28;809;-77
2022/03/12 02:59:28;;;;;;;;;;;;;;;3.10;46.39;101790.53;5056571;28;1253;-77
2022/03/12 03:02:00;;;;;;;;;;;;;;;3.10;47.05;101796.72;5056783;28;807;-77
2022/03/12 03:04:26;;;;;;;;;;;;;;;3.08;47.37;101795.03;5056814;28;535;-77
2022/03/12 03:06:52;;;;;;;;;;;;;;;3.07;47.07;101802.13;5057262;28;830;-77
2022/03/12 03:09:18;;;;;;;;;;;;;;;3.05;47.08;101797.81;5071342;28;874;-77
2022/03/12 03:11:44;;;;;;;;;;;;;;;3.04;46.93;101794.25;5056493;28;1907;-77
2022/03/12 03:14:12;;;;;;;;;;;;;;;3.10;46.57;101798.50;5056493;28;791;-77
2022/03/12 03:16:39;;;;;;;;;;;;;;;3.13;46.24;101801.03;5071915;28;915;-77
2022/03/12 03:19:06;;;;;;;;;;;;;;;3.14;46.18;101798.31;5056476;28;803;-77
2022/03/12 03:21:32;;;;;;;;;;;;;;;3.11;46.02;101802.88;5056421;28;1173;-77
2022/03/12 03:24:00;;;;;;;;;;;;;;;3.17;46.04;101797.38;5056629;28;814;-77
2022/03/12 03:26:38;;;;;;;;;;;;;;;3.19;46.01;101798.19;5056245;28;791;-77
2022/03/12 03:29:05;;;;;;;;;;;;;;;3.21;45.73;101800.78;5055870;28;791;-77
2022/03/12 03:31:31;;;;;;;;;;;;;;;3.21;45.84;101799.00;5056227;28;1894;-77
2022/03/12 03:33:57;;;;;;;;;;;;;;;3.23;45.34;101806.88;5056247;28;807;-77
2022/03/12 03:36:23;;;;;;;;;;;;;;;3.21;45.86;101806.06;5071404;28;899;-77
2022/03/12 03:38:50;;;;;;;;;;;;;;;3.20;45.52;101812.31;5055518;28;752;-77
2022/03/12 03:41:16;;;;;;;;;;;;;;;3.16;45.10;101809.75;5056099;28;1193;-77
2022/03/12 03:43:45;;;;;;;;;;;;;;;3.23;45.48;101817.50;5056136;28;823;-77
2022/03/12 03:46:15;;;;;;;;;;;;;;;3.23;44.96;101809.53;5055899;28;880;-77
2022/03/12 03:48:41;;;;;;;;;;;;;;;3.22;45.25;101816.63;5054564;28;811;-77
2022/03/12 03:51:08;;;;;;;;;;;;;;;3.26;45.42;101814.75;5070868;28;1902;-77
2022/03/12 03:53:34;;;;;;;;;;;;;;;3.23;45.55;101814.84;5055844;28;908;-77
2022/03/12 03:56:00;;;;;;;;;;;;;;;3.23;45.39;101814.84;5055758;28;803;-77
2022/03/12 03:58:32;;;;;;;;;;;;;;;3.22;45.05;101810.47;5055204;28;728;-77
2022/03/12 04:01:04;;;;;;;;;;;;;;;3.21;45.10;101816.69;5055664;28;1245;-77
2022/03/12 04:03:32;;;;;;;;;;;;;;;3.23;45.31;101814.84;5056055;28;823;-77
2022/03/12 04:06:01;;;;;;;;;;;;;;;3.23;45.21;101815.69;5055847;28;835;-77
2022/03/12 04:08:28;;;;;;;;;;;;;;;3.24;45.59;101813.91;5055054;28;935;-77
2022/03/12 04:10:54;;;;;;;;;;;;;;;3.25;45.43;101813.03;5055239;28;1165;-77
2022/03/12 04:13:22;;;;;;;;;;;;;;;3.21;45.31;101811.38;5055703;28;1945;-77
2022/03/12 04:15:50;;;;;;;;;;;;;;;3.23;45.22;101812.19;5055715;28;821;-77
2022/03/12 04:18:18;;;;;;;;;;;;;;;3.19;45.70;101826.47;5054965;28;807;-77
2022/03/12 04:20:48;;;;;;;;;;;;;;;3.20;45.04;101821.13;5055382;28;1177;-77
2022/03/12 04:23:21;;;;;;;;;;;;;;;3.15;45.11;101820.44;5055262;28;808;-77
2022/03/12 04:25:52;;;;;;;;;;;;;;;3.25;44.75;101816.53;5055875;28;600;-77
2022/03/12 04:28:19;;;;;;;;;;;;;;;3.23;44.70;101813.06;5054681;28;874;-77
2022/03/12 04:30:45;;;;;;;;;;;;;;;3.21;44.69;101820.19;5054967;28;1268;-77
2022/03/12 04:33:12;;;;;;;;;;;;;;;3.23;44.91;101823.66;5054994;28;1902;-77
2022/03/12 04:35:38;;;;;;;;;;;;;;;3.27;45.04;101822.66;5055135;28;938;-77
2022/03/12 04:38:05;;;;;;;;;;;;;;;3.26;44.98;101830.66;5054990;28;741;-77
2022/03/12 04:40:32;;;;;;;;;;;;;;;3.24;45.12;101830.69;5054525;28;1181;-77
2022/03/12 04:42:58;;;;;;;;;;;;;;;3.20;45.57;101826.44;5055053;28;840;-77
2022/03/12 04:45:26;;;;;;;;;;;;;;;3.21;45.24;101829.94;5055161;28;818;-77
2022/03/12 04:47:54;;;;;;;;;;;;;;;3.15;44.92;101831.91;5055092;28;799;-77
2022/03/12 04:50:22;;;;;;;;;;;;;;;3.25;45.12;101844.84;5054377;28;1244;-77
2022/03/12 04:52:53;;;;;;;;;;;;;;;3.26;45.25;101835.97;5054814;28;1914;-77
2022/03/12 04:55:21;;;;;;;;;;;;;;;3.22;45.58;101832.53;5054766;28;514;-77
2022/03/12 04:57:49;;;;;;;;;;;;;;;3.20;45.70;101834.38;5054966;28;913;-77
2022/03/12 05:00:18;;;;;;;;;;;;;;;3.20;45.90;101833.50;5053912;28;1177;-77
2022/03/12 05:02:47;;;;;;;;;;;;;;;3.17;45.28;101840.66;5054746;28;956;-77
2022/03/12 05:05:15;;;;;;;;;;;;;;;3.19;45.59;101834.44;5054539;28;719;-77
2022/03/12 05:07:43;;;;;;;;;;;;;;;3.16;45.52;101838.06;5054817;28;806;-77
2022/03/12 05:10:11;;;;;;;;;;;;;;;3.14;46.22;101843.38;5054001;28;1185;-77
2022/03/12 05:12:39;;;;;;;;;;;;;;;3.14;45.88;101843.38;5054479;28;1907;-77
2022/03/12 05:15:13;;;;;;;;;;;;;;;3.13;46.01;101849.63;5054423;28;787;-77
2022/03/12 05:17:46;;;;;;;;;;;;;;;3.16;45.50;101843.38;5054541;28;559;-77
2022/03/12 05:20:19;;;;;;;;;;;;;;;3.13;45.50;101839.00;5055774;28;1323;-77
2022/03/12 05:22:46;;;;;;;;;;;;;;;3.14;45.64;101842.53;5055858;28;531;-77
2022/03/12 05:25:12;;;;;;;;;;;;;;;3.13;46.23;101844.31;5054241;28;960;-77
2022/03/12 05:27:38;;;;;;;;;;;;;;;3.12;46.11;101841.72;5054303;28;962;-77
2022/03/12 05:30:05;;;;;;;;;;;;;;;3.08;46.51;101850.69;5054035;28;1189;-77
2022/03/12 05:32:31;;;;;;;;;;;;;;;3.04;45.77;101852.56;5054365;28;1965;-77
2022/03/12 05:34:57;;;;;;;;;;;;;;;3.02;46.62;101861.50;5054181;28;1005;-77
2022/03/12 05:37:23;;;;;;;;;;;;;;;2.99;46.25;101861.59;5054007;28;894;-77
2022/03/12 05:39:51;;;;;;;;;;;;;;;3.00;46.27;101863.34;5053769;28;1220;-77
2022/03/12 05:42:19;;;;;;;;;;;;;;;3.00;45.91;101863.34;5054181;28;866;-77
2022/03/12 05:44:45;;;;;;;;;;;;;;;2.97;46.93;101861.66;5054186;28;812;-77
2022/03/12 05:47:11;;;;;;;;;;;;;;;2.98;46.02;101866.03;5054338;28;951;-77
2022/03/12 05:49:37;;;;;;;;;;;;;;;2.96;46.52;101861.72;5053621;28;1212;-77
2022/03/12 05:52:03;;;;;;;;;;;;;;;2.97;45.43;101859.00;5054343;28;1977;-77
2022/03/12 05:54:29;;;;;;;;;;;;;;;3.03;45.10;101868.53;5054204;28;762;-77
2022/03/12 05:56:56;;;;;;;;;;;;;;;3.06;45.49;101871.97;5054018;28;859;-77
2022/03/12 05:59:22;;;;;;;;;;;;;;;3.13;45.17;101873.47;5053629;28;1295;-77
2022/03/12 06:01:50;;;;;;;;;;;;;;;3.17;44.17;101861.88;5053959;28;808;-77
2022/03/12 06:04:25;;;;;;;;;;;;;;;3.22;44.38;101866.13;5054148;28;807;-77
2022/03/12 06:06:53;;;;;;;;;;;;;;;3.26;44.82;101873.94;5054381;28;608;-77
2022/03/12 06:09:18;;;;;;;;;;;;;;;3.27;44.61;101878.34;5053405;28;817;-77
2022/03/12 06:11:45;;;;;;;;;;;;;;;3.26;44.14;101873.09;5053674;28;1967;-77
2022/03/12 06:14:15;;;;;;;;;;;;;;;3.32;44.16;101878.16;5058224;28;863;-76
2022/03/12 06:16:48;;;;;;;;;;;;;;;3.32;44.80;101884.34;5068493;28;520;-76
2022/03/12 06:19:16;;;;;;;;;;;;;;;3.32;44.50;101886.97;5067253;28;527;-77
2022/03/12 06:21:43;;;;;;;;;;;;;;;3.36;44.31;101887.78;5058131;28;1220;-77
2022/03/12 06:24:09;;;;;;;;;;;;;;;3.38;44.38;101886.78;5073468;28;889;-77
2022/03/12 06:26:36;;;;;;;;;;;;;;;3.37;44.13;101886.84;5058848;28;880;-77
2022/03/12 06:29:03;;;;;;;;;;;;;;;3.42;44.13;101891.06;5058881;28;811;-77
2022/03/12 06:31:31;;;;;;;;;;;;;;;3.45;44.42;101892.75;5058981;28;1264;-77
2022/03/12 06:33:58;;;;;;;;;;;;;;;3.50;44.33;101900.53;5058954;28;1969;-77
2022/03/12 06:36:25;;;;;;;;;;;;;;;3.54;44.64;101900.41;5058981;28;958;-77
2022/03/12 06:38:51;;;;;;;;;;;;;;;3.59;44.30;101902.88;5057769;28;739;-77
2022/03/12 06:41:20;;;;;;;;;;;;;;;3.60;44.26;101902.81;5058019;28;1162;-77
2022/03/12 06:43:47;;;;;;;;;;;;;;;3.70;44.29;101914.00;5058936;28;807;-77
2022/03/12 06:46:14;;;;;;;;;;;;;;;3.77;44.33;101912.00;5060190;28;813;-77
2022/03/12 06:48:42;;;;;;;;;;;;;;;3.82;44.39;101908.25;5061118;28;812;-77
2022/03/12 06:51:13;;;;;;;;;;;;;;;3.85;43.42;101909.94;5058661;28;1256;-77
2022/03/12 06:53:39;;;;;;;;;;;;;;;3.88;43.09;101915.13;5058930;28;1875;-77
2022/03/12 06:56:07;;;;;;;;;;;;;;;3.95;43.58;101914.88;5058917;28;727;-77
2022/03/12 06:58:33;;;;;;;;;;;;;;;3.97;42.81;101920.97;5058819;28;886;-77
2022/03/12 07:00:59;;;;;;;;;;;;;;;4.03;42.64;101922.53;5058909;28;1268;-77
2022/03/12 07:03:25;;;;;;;;;;;;;;;4.14;42.63;101923.03;5059104;28;920;-77
2022/03/12 07:05:52;;;;;;;;;;;;;;;4.26;42.54;101924.38;5074851;28;864;-77
2022/03/12 07:08:19;;;;;;;;;;;;;;;4.32;42.36;101917.03;5057985;28;791;-77
2022/03/12 07:10:46;;;;;;;;;;;;;;;4.45;42.57;101920.09;5059107;28;1181;-77
2022/03/12 07:13:12;;;;;;;;;;;;;;;4.57;41.44;101916.97;5058364;28;1975;-77
2022/03/12 07:15:38;;;;;;;;;;;;;;;4.70;42.43;101920.00;5058823;28;906;-77
2022/03/12 07:18:04;;;;;;;;;;;;;;;4.79;42.05;101917.00;5072706;28;1006;-77
2022/03/12 07:20:30;;;;;;;;;;;;;;;4.86;41.69;101918.50;5055893;28;1165;-77
2022/03/12 07:22:56;;;;;;;;;;;;;;;4.93;41.81;101920.94;5056709;28;960;-77
2022/03/12 07:25:25;;;;;;;;;;;;;;;4.90;41.97;101922.75;5056550;28;937;-77
2022/03/12 07:27:52;;;;;;;;;;;;;;;4.91;41.92;101918.31;5056670;28;814;-77
2022/03/12 07:30:19;;;;;;;;;;;;;;;4.92;41.65;101927.16;5055787;28;1255;-77
2022/03/12 07:32:45;;;;;;;;;;;;;;;4.99;41.78;101931.31;5056592;28;1969;-77
2022/03/12 07:35:13;;;;;;;;;;;;;;;5.01;41.84;101929.44;5056633;28;919;-77
2022/03/12 07:37:39;;;;;;;;;;;;;;;5.10;42.24;101932.59;5056539;28;839;-77
2022/03/12 07:40:06;;;;;;;;;;;;;;;5.12;41.55;101937.88;5055663;28;1161;-77
2022/03/12 07:42:33;;;;;;;;;;;;;;;5.18;41.42;101937.63;5056025;28;719;-77
2022/03/12 07:44:59;;;;;;;;;;;;;;;5.19;41.42;101942.00;5056078;28;799;-77
2022/03/12 07:47:25;;;;;;;;;;;;;;;5.27;42.41;101939.03;5056031;28;817;-77
2022/03/12 07:49:50;;;;;;;;;;;;;;;5.29;41.77;101939.84;5055538;28;1189;-77
2022/03/12 07:52:16;;;;;;;;;;;;;;;5.41;41.09;101944.69;5055903;28;1960;-77
2022/03/12 07:54:43;;;;;;;;;;;;;;;5.55;41.56;101941.44;5055804;28;842;-77
2022/03/12 07:57:09;;;;;;;;;;;;;;;5.60;41.28;101940.28;5056039;28;894;-77
2022/03/12 07:59:35;;;;;;;;;;;;;;;5.73;41.19;101935.31;5055220;28;1185;-77
2022/03/12 08:02:02;;;;;;;;;;;;;;;5.81;40.94;101943.00;5055723;28;835;-77
2022/03/12 08:04:30;;;;;;;;;;;;;;;5.83;40.50;101939.31;5055626;28;806;-77
2022/03/12 08:07:00;;;;;;;;;;;;;;;5.94;40.71;101944.22;5055559;28;861;-77
2022/03/12 08:09:26;;;;;;;;;;;;;;;6.13;40.77;101945.13;5055052;28;1177;-77
2022/03/12 08:11:52;;;;;;;;;;;;;;;6.32;39.92;101937.19;5055558;28;810;-77
2022/03/12 08:14:19;;;;;;;;;;;;;;;6.43;39.61;101948.22;5053472;28;1894;-76
2022/03/12 08:16:45;;;;;;;;;;;;;;;6.60;39.50;101943.00;5055346;28;814;-77
2022/03/12 08:19:12;;;;;;;;;;;;;;;6.84;39.69;101951.63;5055207;28;807;-77
2022/03/12 08:21:38;;;;;;;;;;;;;;;7.12;40.03;101948.50;5055400;28;1260;-77
2022/03/12 08:24:05;;;;;;;;;;;;;;;7.46;38.80;101945.03;5055411;28;898;-77
2022/03/12 08:26:32;;;;;;;;;;;;;;;7.79;38.94;101946.97;5055303;28;819;-77
2022/03/12 08:28:58;;;;;;;;;;;;;;;8.05;38.83;101948.28;5054551;28;1005;-77
2022/03/12 08:31:24;;;;;;;;;;;;;;;8.24;37.21;101945.50;5055123;28;1169;-77
2022/03/12 08:33:50;;;;;;;;;;;;;;;8.42;37.87;101946.38;5055475;28;1939;-77
2022/03/12 08:36:17;;;;;;;;;;;;;;;8.46;37.61;101946.13;5054509;28;954;-77
2022/03/12 08:38:43;;;;;;;;;;;;;;;8.67;38.16;101952.13;5054506;28;783;-77
2022/03/12 08:41:11;;;;;;;;;;;;;;;8.82;37.78;101948.56;5054895;28;1268;-77
2022/03/12 08:43:38;;;;;;;;;;;;;;;8.90;37.30;101956.19;5054927;28;887;-77
2022/03/12 08:46:07;;;;;;;;;;;;;;;9.02;36.73;101962.66;5070255;28;811;-77
2022/03/12 08:48:35;;;;;;;;;;;;;;;9.33;37.63;101951.94;5055820;28;3680;-79
2022/03/12 08:51:03;;;;;;;;;;;;;;;9.63;37.55;101956.47;5055450;28;3538;-78
2022/03/12 08:53:29;;;;;;;;;;;;;;;9.70;36.25;101955.16;5059469;28;3808;-78
2022/03/12 08:55:55;;;;;;;;;;;;;;;9.84;35.96;101949.84;5074732;28;509;-78
2022/03/12 08:58:23;;;;;;;;;;;;;;;9.82;35.96;101945.50;5073945;28;975;-78
2022/03/12 09:00:52;;;;;;;;;;;;;;;9.73;36.40;101944.25;5074588;28;1268;-78
2022/03/12 09:03:20;;;;;;;;;;;;;;;9.61;36.08;101944.97;5074295;28;1177;-78
2022/03/12 09:05:47;;;;;;;;;;;;;;;9.53;36.67;101949.91;5073384;28;3812;-78
2022/03/12 09:08:15;;;;;;;;;;;;;;;9.38;37.23;101951.69;5073966;28;822;-78
2022/03/12 09:10:42;;;;;;;;;;;;;;;9.27;37.54;101938.91;5074350;28;1208;-78
2022/03/12 09:13:12;;;;;;;;;;;;;;;9.23;37.69;101942.69;5074547;28;1894;-78
2022/03/12 09:15:39;;;;;;;;;;;;;;;9.23;37.67;101936.47;5074496;28;541;-78
2022/03/12 09:18:06;;;;;;;;;;;;;;;9.29;38.12;101938.81;5074375;28;885;-77
2022/03/12 09:20:42;;;;;;;;;;;;;;;9.36;38.43;101932.16;5073690;28;1345;-78
2022/03/12 09:23:09;;;;;;;;;;;;;;;9.47;38.36;101933.25;5069162;28;849;-78
2022/03/12 09:25:35;;;;;;;;;;;;;;;9.52;38.23;101937.47;5055484;28;1077;-78
2022/03/12 09:28:02;;;;;;;;;;;;;;;9.63;38.68;101941.25;5058295;28;850;-78
2022/03/12 09:30:28;;;;;;;;;;;;;;;9.53;38.38;101934.69;5054999;28;1217;-78
2022/03/12 09:32:54;;;;;;;;;;;;;;;9.58;37.79;101935.31;5056828;28;1955;-78
2022/03/12 09:35:20;;;;;;;;;;;;;;;9.71;38.34;101930.94;5074036;28;1122;-78
2022/03/12 09:37:47;;;;;;;;;;;;;;;9.75;38.18;101932.50;5074450;28;786;-78
2022/03/12 09:40:17;;;;;;;;;;;;;;;9.83;38.11;101937.38;5069077;28;1213;-77
2022/03/12 09:42:44;;;;;;;;;;;;;;;9.94;38.40;101939.44;5063172;28;3378;-78
2022/03/12 09:45:12;;;;;;;;;;;;;;;10.07;38.05;101949.31;5074127;28;1094;-78
2022/03/12 09:47:38;;;;;;;;;;;;;;;10.22;38.15;101947.53;5075218;28;814;-78
2022/03/12 09:50:05;;;;;;;;;;;;;;;10.47;38.18;101948.72;5077661;28;1251;-78
2022/03/12 09:52:32;;;;;;;;;;;;;;;10.98;38.53;101957.09;5078360;28;752;-78
2022/03/12 09:54:58;;;;;;;;;;;;;;;11.41;37.91;101952.50;5078428;28;1894;-78
2022/03/12 09:57:24;;;;;;;;;;;;;;;11.82;37.13;101954.25;5077437;28;789;-78
2022/03/12 09:59:50;;;;;;;;;;;;;;;12.17;36.19;101946.44;5077379;28;1240;-78
2022/03/12 10:02:16;;;;;;;;;;;;;;;12.52;37.49;101938.59;5078094;28;735;-78
2022/03/12 10:04:43;;;;;;;;;;;;;;;12.72;36.20;101937.16;5078224;28;845;-78
2022/03/12 10:07:09;;;;;;;;;;;;;;;12.97;35.80;101928.13;5093115;28;800;-78
2022/03/12 10:09:38;;;;;;;;;;;;;;;13.03;35.27;101930.41;5077388;28;1236;-78
2022/03/12 10:12:05;;;;;;;;;;;;;;;12.97;35.11;101929.00;5078028;28;1171;-78
2022/03/12 10:14:32;;;;;;;;;;;;;;;13.14;36.29;101938.53;5070762;28;1898;-78
2022/03/12 10:17:00;;;;;;;;;;;;;;;13.30;35.68;101941.88;5057844;28;910;-78
2022/03/12 10:19:27;;;;;;;;;;;;;;;13.34;35.56;101943.34;5072460;28;1213;-78
2022/03/12 10:21:54;;;;;;;;;;;;;;;13.46;35.28;101936.16;5055850;28;788;-78
2022/03/12 10:24:20;;;;;;;;;;;;;;;13.69;36.08;101940.69;5057670;28;747;-78
2022/03/12 10:26:46;;;;;;;;;;;;;;;14.00;36.37;101939.19;5057372;28;791;-77
2022/03/12 10:29:13;;;;;;;;;;;;;;;14.12;35.84;101934.69;5056864;28;815;-78
2022/03/12 10:31:39;;;;;;;;;;;;;;;13.98;35.35;101932.22;5065252;28;1225;-78
2022/03/12 10:34:21;;;;;;;;;;;;;;;13.89;35.13;101936.47;5076973;28;1949;-78
2022/03/12 10:36:49;;;;;;;;;;;;;;;13.82;35.23;101929.81;5077195;28;569;-78
2022/03/12 10:39:17;;;;;;;;;;;;;;;13.74;35.84;101926.84;5076664;28;724;-78
2022/03/12 10:41:43;;;;;;;;;;;;;;;14.20;36.06;101921.44;5076729;28;3086;-78
2022/03/12 10:44:11;;;;;;;;;;;;;;;15.40;33.99;101920.72;5077147;28;730;-78
2022/03/12 10:46:41;;;;;;;;;;;;;;;16.67;33.22;101915.16;5077092;28;794;-78
2022/03/12 10:49:08;;;;;;;;;;;;;;;18.15;31.09;101923.19;5064981;28;705;-78
2022/03/12 10:51:39;;;;;;;;;;;;;;;18.92;29.54;101920.22;5056782;28;1169;-78
2022/03/12 10:54:15;;;;;;;;;;;;;;;20.16;28.28;101913.94;5057070;28;1898;-78
2022/03/12 10:56:48;;;;;;;;;;;;;;;20.81;27.83;101916.19;5056895;28;672;-78
2022/03/12 10:59:19;;;;;;;;;;;;;;;20.83;28.35;101914.97;5055965;28;757;-78
2022/03/12 11:01:54;;;;;;;;;;;;;;;21.17;27.61;101911.34;5056793;28;1379;-78
2022/03/12 11:04:23;;;;;;;;;;;;;;;21.30;26.79;101914.47;5056769;28;818;-78
2022/03/12 11:06:54;;;;;;;;;;;;;;;21.14;28.04;101914.44;5057363;28;943;-78
2022/03/12 11:09:35;;;;;;;;;;;;;;;21.30;26.44;101919.09;5066206;28;1056;-78
2022/03/12 11:12:04;;;;;;;;;;;;;;;21.81;28.05;101912.47;5076697;28;1263;-78
2022/03/12 11:14:30;;;;;;;;;;;;;;;22.15;26.86;101906.84;5088374;28;1902;-79
2022/03/12 11:16:56;;;;;;;;;;;;;;;21.95;27.03;101911.81;5056611;28;795;-78
2022/03/12 11:19:37;;;;;;;;;;;;;;;22.30;27.27;101910.56;5056161;28;1250;-78
2022/03/12 11:22:12;;;;;;;;;;;;;;;22.82;26.58;101914.69;5074089;28;622;-79
2022/03/12 11:24:46;;;;;;;;;;;;;;;23.22;26.82;101918.28;5056977;28;787;-78
2022/03/12 11:27:22;;;;;;;;;;;;;;;23.31;26.03;101908.97;5056846;28;637;-79
2022/03/12 11:30:01;;;;;;;;;;;;;;;23.77;26.71;101911.72;5056541;28;1208;-79
2022/03/12 11:32:35;;;;;;;;;;;;;;;24.29;26.40;101912.63;5056608;28;732;-79
2022/03/12 11:35:15;;;;;;;;;;;;;;;24.36;24.98;101914.63;5056951;28;1963;-79
2022/03/12 11:37:42;;;;;;;;;;;;;;;24.85;25.62;101907.50;5056899;28;703;-79
2022/03/12 11:40:14;;;;;;;;;;;;;;;25.11;25.21;101909.75;5056742;28;1265;-79
2022/03/12 11:42:41;;;;;;;;;;;;;;;25.07;25.13;101902.97;5057296;28;545;-78
2022/03/12 11:45:14;;;;;;;;;;;;;;;24.74;25.00;101905.25;5056654;28;774;-76
2022/03/12 11:47:43;;;;;;;;;;;;;;;25.06;25.29;101897.66;5056053;28;569;-77
2022/03/12 11:50:13;;;;;;;;;;;;;;;24.72;24.59;101904.59;5055263;28;1315;-76
2022/03/12 11:52:41;;;;;;;;;;;;;;;24.72;25.60;101901.00;5055935;28;578;-78
2022/03/12 11:55:15;;;;;;;;;;;;;;;25.33;25.11;101893.31;5055830;28;1897;-78
2022/03/12 11:57:41;;;;;;;;;;;;;;;25.63;24.28;101888.53;5056299;28;721;-77
2022/03/12 12:00:18;;;;;;;;;;;;;;;25.93;24.08;101894.75;5055406;28;1264;-78
2022/03/12 12:02:44;;;;;;;;;;;;;;;26.17;23.85;101893.47;5055812;28;520;-78
2022/03/12 12:05:12;;;;;;;;;;;;;;;26.16;24.56;101895.38;5055683;28;783;-76
2022/03/12 12:07:43;;;;;;;;;;;;;;;26.56;23.57;101891.00;5055572;28;755;-76
2022/03/12 12:10:12;;;;;;;;;;;;;;;26.37;23.66;101899.09;5053931;28;1193;-76
2022/03/12 12:12:38;;;;;;;;;;;;;;;26.85;23.49;101897.28;5055494;28;915;-77
2022/03/12 12:15:07;;;;;;;;;;;;;;;26.55;23.45;101896.69;5070344;28;1902;-77
2022/03/12 12:17:33;;;;;;;;;;;;;;;26.51;23.87;101898.13;5054943;28;1233;-77
2022/03/12 12:20:00;;;;;;;;;;;;;;;26.16;24.32;101891.75;5057856;28;1843;-77
2022/03/12 12:22:27;;;;;;;;;;;;;;;26.02;23.86;101894.41;5059425;28;2437;-76
2022/03/12 12:24:56;;;;;;;;;;;;;;;26.47;23.49;101883.09;5057041;28;1983;-77
2022/03/12 12:27:39;;;;;;;;;;;;;;;26.33;23.51;101887.63;5075443;28;797;-76
2022/03/12 12:30:05;;;;;;;;;;;;;;;26.72;24.96;101886.19;5071102;28;1212;-77
2022/03/12 12:32:44;;;;;;;;;;;;;;;27.20;23.19;101894.44;5056569;28;1440;-77
2022/03/12 12:35:15;;;;;;;;;;;;;;;27.46;22.87;101889.00;5075010;28;1893;-77
2022/03/12 12:37:40;;;;;;;;;;;;;;;27.49;22.98;101888.56;5074736;28;1870;-77
2022/03/12 12:40:26;;;;;;;;;;;;;;;27.68;22.76;101889.69;5072042;28;1871;-77
2022/03/12 12:42:56;;;;;;;;;;;;;;;27.38;23.53;101889.19;5054845;28;794;-77
2022/03/12 12:45:24;;;;;;;;;;;;;;;27.92;23.41;101885.44;5068019;28;1876;-77
2022/03/12 12:48:11;;;;;;;;;;;;;;;28.66;22.54;101890.63;5065214;28;886;-77
2022/03/12 12:50:37;;;;;;;;;;;;;;;29.14;22.10;101887.47;5054619;28;1691;-77
2022/03/12 12:53:15;;;;;;;;;;;;;;;29.78;21.28;101888.31;5059767;28;1513;-77
2022/03/12 12:55:43;;;;;;;;;;;;;;;30.12;20.84;101887.84;5074747;28;1945;-77
2022/03/12 12:58:10;;;;;;;;;;;;;;;29.70;21.73;101886.72;5074504;28;825;-77
2022/03/12 13:00:39;;;;;;;;;;;;;;;29.86;21.16;101891.66;5074911;28;1205;-77
2022/03/12 13:03:18;;;;;;;;;;;;;;;30.16;21.36;101889.06;5072754;28;1730;-77
2022/03/12 13:05:53;;;;;;;;;;;;;;;30.67;21.48;101887.91;5064409;28;2007;-77